createdAt,value
2023-05-09T00:01:56.506Z,41.37
2023-05-09T00:04:25.404Z,41.33
2023-05-09T00:06:53.321Z,41.54
2023-05-09T00:09:20.934Z,41.60
2023-05-09T00:11:48.613Z,41.63
2023-05-09T00:14:18.242Z,41.82
2023-05-09T00:16:46.047Z,41.72
2023-05-09T00:19:13.821Z,41.69
2023-05-09T00:21:41.425Z,41.68
2023-05-09T00:24:09.094Z,41.73
2023-05-09T00:26:36.820Z,41.83
2023-05-09T00:29:04.451Z,41.88
2023-05-09T00:31:32.153Z,42.14
2023-05-09T00:33:59.976Z,42.26
2023-05-09T00:36:27.665Z,42.29
2023-05-09T00:38:55.314Z,42.21
2023-05-09T00:41:22.937Z,42.26
2023-05-09T00:43:50.611Z,42.33
2023-05-09T00:46:18.324Z,42.33
2023-05-09T00:48:46.479Z,42.50
2023-05-09T00:51:14.688Z,42.50
2023-05-09T00:53:42.485Z,42.60
2023-05-09T00:56:12.000Z,42.71
2023-05-09T00:58:39.756Z,43.09
2023-05-09T01:01:08.462Z,43.42
2023-05-09T01:03:39.768Z,43.30
2023-05-09T01:06:39.527Z,43.52
2023-05-09T01:09:15.184Z,43.89
2023-05-09T01:11:58.995Z,43.85
2023-05-09T01:14:41.625Z,44.01
2023-05-09T01:17:27.229Z,44.11
2023-05-09T01:20:13.592Z,44.12
2023-05-09T01:22:48.548Z,44.33
2023-05-09T01:25:50.733Z,44.31
2023-05-09T01:28:21.500Z,44.48
2023-05-09T01:30:53.479Z,44.54
2023-05-09T01:33:24.146Z,44.67
2023-05-09T01:35:57.862Z,44.68
2023-05-09T01:38:26.118Z,44.74
2023-05-09T01:40:58.328Z,44.80
2023-05-09T01:43:29.565Z,44.85
2023-05-09T01:45:59.543Z,45.14
2023-05-09T01:48:30.813Z,45.20
2023-05-09T01:51:00.170Z,45.38
2023-05-09T01:53:29.308Z,45.41
2023-05-09T01:55:59.340Z,45.53
2023-05-09T01:58:28.043Z,45.76
2023-05-09T02:00:56.197Z,45.92
2023-05-09T02:03:25.879Z,45.68
2023-05-09T02:05:55.513Z,46.01
2023-05-09T02:08:23.711Z,46.06
2023-05-09T02:10:51.597Z,46.15
2023-05-09T02:13:19.363Z,46.27
2023-05-09T02:15:47.710Z,46.42
2023-05-09T02:18:17.491Z,46.43
2023-05-09T02:20:45.863Z,46.48
2023-05-09T02:23:13.859Z,46.74
2023-05-09T02:25:41.472Z,46.70
2023-05-09T02:28:10.424Z,46.75
2023-05-09T02:30:43.094Z,46.71
2023-05-09T02:33:12.668Z,46.84
2023-05-09T02:35:43.801Z,46.95
2023-05-09T02:38:14.374Z,47.09
2023-05-09T02:40:47.555Z,46.98
2023-05-09T02:43:15.554Z,47.10
2023-05-09T02:45:43.798Z,47.12
2023-05-09T02:48:11.589Z,47.04
2023-05-09T02:50:42.780Z,47.08
2023-05-09T02:53:10.899Z,47.15
2023-05-09T02:55:40.546Z,47.14
2023-05-09T02:58:14.191Z,47.24
2023-05-09T03:00:43.184Z,47.42
2023-05-09T03:03:11.241Z,47.52
2023-05-09T03:05:39.164Z,47.55
2023-05-09T03:08:06.914Z,47.62
2023-05-09T03:10:35.081Z,47.86
2023-05-09T03:13:03.577Z,47.97
2023-05-09T03:15:31.633Z,47.93
2023-05-09T03:18:00.242Z,48.01
2023-05-09T03:20:28.150Z,48.00
2023-05-09T03:22:55.969Z,47.95
2023-05-09T03:25:24.477Z,48.02
2023-05-09T03:27:52.178Z,48.06
2023-05-09T03:30:20.198Z,47.90
2023-05-09T03:32:49.401Z,48.00
2023-05-09T03:35:17.507Z,48.23
2023-05-09T03:37:45.266Z,48.46
2023-05-09T03:40:13.284Z,48.43
2023-05-09T03:42:49.336Z,48.37
2023-05-09T03:45:17.092Z,48.33
2023-05-09T03:47:46.210Z,48.40
2023-05-09T03:50:14.355Z,48.47
2023-05-09T03:52:42.496Z,48.59
2023-05-09T03:55:10.659Z,48.81
2023-05-09T03:57:38.548Z,48.83
2023-05-09T04:00:08.083Z,48.78
2023-05-09T04:02:42.748Z,48.94
2023-05-09T04:05:17.628Z,48.97
2023-05-09T04:07:46.505Z,49.07
2023-05-09T04:10:15.387Z,49.00
2023-05-09T04:12:43.430Z,49.11
2023-05-09T04:15:12.336Z,49.15
2023-05-09T04:17:40.956Z,49.20
2023-05-09T04:20:10.655Z,49.35
2023-05-09T04:22:38.325Z,49.28
2023-05-09T04:25:07.394Z,49.23
2023-05-09T04:27:35.543Z,49.24
2023-05-09T04:30:04.147Z,49.17
2023-05-09T04:32:32.142Z,49.55
2023-05-09T04:34:59.761Z,49.81
2023-05-09T04:37:31.543Z,49.89
2023-05-09T04:39:59.766Z,50.04
2023-05-09T04:42:33.764Z,50.27
2023-05-09T04:45:01.887Z,50.18
2023-05-09T04:47:30.483Z,50.04
2023-05-09T04:49:58.246Z,49.73
2023-05-09T04:52:25.893Z,49.87
2023-05-09T04:54:54.231Z,50.08
2023-05-09T04:57:22.541Z,50.25
2023-05-09T04:59:54.082Z,50.39
2023-05-09T05:02:22.229Z,50.45
2023-05-09T05:04:51.900Z,50.50
2023-05-09T05:07:21.401Z,50.66
2023-05-09T05:09:49.004Z,50.74
2023-05-09T05:12:16.819Z,50.76
2023-05-09T05:14:44.850Z,50.74
2023-05-09T05:17:15.649Z,50.77
2023-05-09T05:19:46.612Z,50.93
2023-05-09T05:22:15.473Z,51.03
2023-05-09T05:24:44.278Z,50.99
2023-05-09T05:27:12.466Z,50.90
2023-05-09T05:29:40.108Z,50.71
2023-05-09T05:32:07.944Z,50.73
2023-05-09T05:34:35.705Z,50.82
2023-05-09T05:37:03.673Z,50.79
2023-05-09T05:39:31.278Z,50.96
2023-05-09T05:41:58.963Z,51.01
2023-05-09T05:44:26.796Z,51.11
2023-05-09T05:46:54.679Z,50.99
2023-05-09T05:49:22.376Z,51.06
2023-05-09T05:51:50.542Z,51.04
2023-05-09T05:54:18.371Z,50.95
2023-05-09T05:56:46.071Z,50.85
2023-05-09T05:59:13.940Z,50.92
2023-05-09T06:01:41.992Z,50.71
2023-05-09T06:16:46.460Z,49.49
2023-05-09T06:19:15.541Z,49.41
2023-05-09T06:21:43.735Z,49.40
2023-05-09T06:24:23.445Z,49.51
2023-05-09T06:26:59.308Z,49.24
2023-05-09T06:29:27.032Z,49.04
2023-05-09T06:31:54.859Z,48.77
2023-05-09T06:34:22.629Z,48.32
2023-05-09T06:36:50.288Z,47.64
2023-05-09T06:39:17.895Z,47.25
2023-05-09T06:41:45.711Z,47.04
2023-05-09T06:44:21.543Z,46.52
2023-05-09T06:46:49.655Z,46.10
2023-05-09T06:49:17.303Z,46.05
2023-05-09T06:51:45.032Z,45.89
2023-05-09T06:54:12.703Z,45.58
2023-05-09T06:56:40.406Z,44.98
2023-05-09T06:59:08.170Z,44.31
2023-05-09T07:01:35.802Z,43.94
2023-05-09T07:04:03.630Z,43.83
2023-05-09T07:06:31.533Z,43.63
2023-05-09T07:08:59.130Z,43.15
2023-05-09T07:11:26.888Z,42.94
2023-05-09T07:13:54.612Z,42.40
2023-05-09T07:16:23.106Z,42.60
2023-05-09T07:18:50.930Z,42.45
2023-05-09T07:21:18.566Z,41.37
2023-05-09T07:23:46.366Z,41.73
2023-05-09T07:26:14.010Z,41.84
2023-05-09T07:28:41.605Z,41.70
2023-05-09T07:31:09.356Z,41.59
2023-05-09T07:33:37.025Z,41.53
2023-05-09T07:36:04.912Z,40.97
2023-05-09T07:38:32.767Z,40.62
2023-05-09T07:41:01.078Z,40.62
2023-05-09T07:43:28.694Z,40.81
2023-05-09T07:45:56.328Z,40.32
2023-05-09T07:48:24.076Z,39.72
2023-05-09T07:50:51.853Z,39.80
2023-05-09T07:53:19.482Z,39.35
2023-05-09T07:55:55.065Z,39.24
2023-05-09T08:03:00.800Z,39.41
2023-05-09T08:05:28.773Z,39.73
2023-05-09T08:07:56.377Z,39.75
2023-05-09T08:10:24.858Z,39.21
2023-05-09T08:12:52.906Z,39.00
2023-05-09T08:15:21.004Z,39.08
2023-05-09T08:17:48.722Z,39.25
2023-05-09T08:20:17.157Z,38.16
2023-05-09T08:22:44.829Z,38.12
2023-05-09T08:25:14.486Z,38.21
2023-05-09T08:27:42.341Z,38.49
2023-05-09T08:30:10.669Z,37.96
2023-05-09T08:32:38.310Z,38.25
2023-05-09T08:35:08.740Z,37.43
2023-05-09T08:37:36.624Z,37.66
2023-05-09T08:40:07.912Z,37.63
2023-05-09T08:42:38.163Z,37.48
2023-05-09T08:45:09.795Z,37.70
2023-05-09T08:47:38.301Z,37.83
2023-05-09T08:50:07.425Z,37.55
2023-05-09T08:52:35.563Z,37.57
2023-05-09T08:55:06.545Z,37.81
2023-05-09T08:57:35.233Z,37.66
2023-05-09T09:00:10.994Z,37.33
2023-05-09T09:02:42.003Z,36.89
2023-05-09T09:05:19.909Z,36.68
2023-05-09T09:07:58.734Z,36.55
2023-05-09T09:10:29.931Z,36.83
2023-05-09T09:12:59.433Z,36.85
2023-05-09T09:15:35.892Z,36.59
2023-05-09T09:18:10.092Z,36.91
2023-05-09T09:20:46.166Z,36.76
2023-05-09T09:23:19.752Z,36.76
2023-05-09T09:25:48.146Z,36.11
2023-05-09T09:28:15.810Z,35.88
2023-05-09T09:30:45.256Z,36.10
2023-05-09T09:33:19.388Z,36.09
2023-05-09T09:35:51.562Z,36.25
2023-05-09T09:38:20.836Z,36.08
2023-05-09T09:40:59.421Z,35.70
2023-05-09T09:43:31.076Z,35.65
2023-05-09T09:46:04.099Z,35.84
2023-05-09T09:48:34.078Z,35.60
2023-05-09T09:51:11.370Z,35.64
2023-05-09T09:53:41.784Z,35.61
2023-05-09T09:56:09.872Z,35.46
2023-05-09T09:58:39.331Z,35.27
2023-05-09T10:01:16.481Z,35.05
2023-05-09T10:03:46.086Z,35.25
2023-05-09T10:06:16.468Z,35.16
2023-05-09T10:08:48.937Z,35.14
2023-05-09T10:11:16.680Z,35.13
2023-05-09T10:13:45.737Z,34.98
2023-05-09T10:16:13.891Z,34.63
2023-05-09T10:18:43.004Z,34.16
2023-05-09T10:21:13.892Z,34.18
2023-05-09T10:23:46.880Z,34.07
2023-05-09T10:26:28.541Z,34.20
2023-05-09T10:29:00.452Z,34.25
2023-05-09T10:31:32.607Z,34.20
2023-05-09T10:34:04.477Z,34.02
2023-05-09T10:36:32.857Z,34.12
2023-05-09T10:39:04.780Z,34.06
2023-05-09T10:41:37.336Z,33.96
2023-05-09T10:44:05.718Z,33.84
2023-05-09T10:46:33.929Z,33.59
2023-05-09T10:49:02.115Z,33.50
2023-05-09T10:51:31.078Z,33.52
2023-05-09T10:53:59.979Z,33.54
2023-05-09T10:56:33.134Z,33.62
2023-05-09T10:59:01.344Z,33.26
2023-05-09T11:01:34.451Z,33.29
2023-05-09T11:04:11.047Z,32.97
2023-05-09T11:06:42.322Z,32.88
2023-05-09T11:09:29.558Z,33.18
2023-05-09T11:12:01.679Z,33.01
2023-05-09T11:14:49.662Z,33.03
2023-05-09T11:17:32.700Z,32.85
2023-05-09T11:20:07.050Z,32.59
2023-05-09T11:22:47.040Z,32.67
2023-05-09T11:25:17.900Z,32.77
2023-05-09T11:27:50.642Z,32.29
2023-05-09T11:30:20.818Z,31.72
2023-05-09T11:32:57.928Z,32.50
2023-05-09T11:37:29.127Z,32.20
2023-05-09T11:40:56.146Z,31.86
2023-05-09T11:43:23.902Z,32.22
2023-05-09T11:45:53.068Z,31.62
2023-05-09T11:48:23.981Z,31.60
2023-05-09T11:50:51.556Z,31.39
2023-05-09T11:53:19.424Z,31.19
2023-05-09T11:55:47.552Z,30.31
2023-05-09T11:58:15.703Z,31.32
2023-05-09T12:00:45.363Z,31.06
2023-05-09T12:03:14.031Z,30.96
2023-05-09T12:05:42.658Z,31.48
2023-05-09T12:08:10.384Z,31.31
2023-05-09T12:10:39.640Z,31.05
2023-05-09T12:13:11.063Z,30.32
2023-05-09T12:15:39.068Z,30.45
2023-05-09T12:18:08.609Z,30.71
2023-05-09T12:20:47.826Z,30.43
2023-05-09T12:23:16.572Z,29.45
2023-05-09T12:26:00.194Z,29.30
2023-05-09T12:28:28.532Z,29.27
2023-05-09T12:30:56.836Z,29.44
2023-05-09T12:33:25.597Z,28.67
2023-05-09T12:36:11.064Z,28.59
2023-05-09T12:38:39.502Z,27.75
2023-05-09T12:41:18.882Z,28.09
2023-05-09T12:43:56.342Z,26.26
2023-05-09T12:46:24.183Z,25.94
2023-05-09T12:48:51.930Z,26.70
2023-05-09T12:51:21.074Z,26.19
2023-05-09T12:53:49.001Z,25.01
2023-05-09T12:56:18.837Z,24.88
2023-05-09T12:58:55.013Z,24.51
2023-05-09T13:01:27.610Z,23.79
2023-05-09T13:04:04.589Z,22.93
2023-05-09T13:06:32.862Z,23.07
2023-05-09T13:09:07.233Z,22.67
2023-05-09T13:11:37.783Z,22.48
2023-05-09T13:14:05.471Z,21.64
2023-05-09T13:16:33.187Z,21.12
2023-05-09T13:19:05.370Z,20.28
2023-05-09T13:21:36.573Z,19.66
2023-05-09T13:24:04.911Z,20.43
2023-05-09T13:26:32.888Z,20.33
2023-05-09T13:29:01.078Z,19.36
2023-05-09T13:38:50.868Z,17.67
2023-05-09T13:41:22.394Z,17.31
2023-05-09T13:43:50.131Z,16.51
2023-05-09T13:46:17.784Z,16.69
2023-05-09T13:48:47.058Z,17.24
2023-05-09T13:51:14.942Z,16.75
2023-05-09T13:53:42.597Z,16.43
2023-05-09T13:56:10.566Z,14.36
2023-05-09T13:58:38.153Z,14.68
2023-05-09T14:01:06.677Z,14.60
2023-05-09T14:03:37.156Z,15.06
2023-05-09T14:06:05.015Z,15.08
2023-05-09T14:08:33.112Z,14.64
2023-05-09T14:11:01.575Z,14.69
2023-05-09T14:13:31.737Z,14.57
2023-05-09T14:15:59.801Z,14.06
2023-05-09T14:18:27.623Z,13.98
2023-05-09T14:20:55.232Z,13.85
2023-05-09T14:23:22.851Z,13.41
2023-05-09T14:25:50.497Z,13.63
2023-05-09T14:28:18.218Z,13.48
2023-05-09T14:30:45.850Z,12.76
2023-05-09T14:33:14.436Z,12.40
2023-05-09T14:35:42.256Z,12.58
2023-05-09T14:38:09.963Z,12.41
2023-05-09T14:40:37.715Z,12.65
2023-05-09T14:43:05.950Z,12.42
2023-05-09T14:45:33.668Z,12.48
2023-05-09T14:48:05.713Z,12.55
2023-05-09T14:50:33.589Z,12.21
2023-05-09T14:53:01.984Z,12.14
2023-05-09T14:55:31.138Z,12.00
2023-05-09T14:57:58.925Z,12.03
2023-05-09T15:00:28.152Z,11.64
2023-05-09T15:02:56.351Z,12.04
2023-05-09T15:05:25.072Z,12.09
2023-05-09T15:07:52.798Z,11.86
2023-05-09T15:10:20.620Z,11.46
2023-05-09T15:12:48.259Z,11.82
2023-05-09T15:15:19.031Z,11.71
2023-05-09T15:17:47.279Z,11.58
2023-05-09T15:20:17.512Z,11.38
2023-05-09T15:22:49.831Z,11.63
2023-05-09T15:25:18.113Z,11.58
2023-05-09T15:27:45.825Z,11.59
2023-05-09T15:30:14.180Z,11.76
2023-05-09T15:32:42.139Z,11.47
2023-05-09T15:35:10.212Z,11.45
2023-05-09T15:37:38.348Z,11.28
2023-05-09T15:40:07.817Z,10.82
2023-05-09T15:42:36.220Z,11.41
2023-05-09T15:45:04.489Z,11.32
2023-05-09T15:47:32.133Z,11.21
2023-05-09T15:50:00.040Z,11.14
2023-05-09T15:52:27.749Z,11.22
2023-05-09T15:54:56.256Z,11.40
2023-05-09T15:57:25.079Z,11.31
2023-05-09T15:59:55.910Z,11.31
2023-05-09T16:02:24.072Z,11.49
2023-05-09T16:04:51.977Z,11.50
2023-05-09T16:07:20.469Z,11.44
2023-05-09T16:09:48.517Z,11.53
2023-05-09T16:12:16.139Z,11.67
2023-05-09T16:14:43.844Z,11.58
2023-05-09T16:17:12.452Z,11.65
2023-05-09T16:19:40.909Z,11.65
2023-05-09T16:22:08.538Z,11.64
2023-05-09T16:24:37.375Z,11.73
2023-05-09T16:27:04.998Z,11.77
2023-05-09T16:29:32.637Z,11.78
2023-05-09T16:32:00.488Z,11.90
2023-05-09T16:34:28.439Z,11.78
2023-05-09T16:36:56.304Z,11.72
2023-05-09T16:39:23.973Z,12.02
2023-05-09T16:41:51.681Z,11.94
2023-05-09T16:44:19.518Z,12.10
2023-05-09T16:46:47.278Z,11.92
2023-05-09T16:49:15.251Z,12.12
2023-05-09T16:51:45.960Z,12.10
2023-05-09T16:54:13.640Z,12.31
2023-05-09T16:56:42.212Z,12.42
2023-05-09T16:59:09.857Z,12.55
2023-05-09T17:01:37.631Z,12.55
2023-05-09T17:04:06.902Z,12.83
2023-05-09T17:06:34.863Z,13.12
2023-05-09T17:09:02.493Z,13.34
2023-05-09T17:11:30.194Z,13.58
2023-05-09T17:13:57.836Z,13.99
2023-05-09T17:16:25.493Z,14.39
2023-05-09T17:18:53.234Z,14.78
2023-05-09T17:21:21.489Z,14.65
2023-05-09T17:23:49.078Z,15.17
2023-05-09T17:26:16.746Z,15.43
2023-05-09T17:28:44.890Z,15.84
2023-05-09T17:31:13.218Z,16.02
2023-05-09T17:33:43.394Z,16.69
2023-05-09T17:36:10.982Z,16.75
2023-05-09T17:38:38.587Z,17.31
2023-05-09T17:41:07.108Z,17.45
2023-05-09T17:43:34.898Z,17.63
2023-05-09T17:46:02.762Z,17.91
2023-05-09T17:48:30.558Z,18.16
2023-05-09T17:50:58.175Z,18.53
2023-05-09T17:53:26.446Z,18.77
2023-05-09T17:55:54.038Z,19.04
2023-05-09T17:58:23.140Z,18.77
2023-05-09T18:00:55.081Z,19.35
2023-05-09T18:03:22.944Z,19.99
2023-05-09T18:05:50.692Z,20.01
2023-05-09T18:08:18.450Z,20.13
2023-05-09T18:10:46.318Z,20.49
2023-05-09T18:13:14.146Z,20.39
2023-05-09T18:15:41.940Z,20.86
2023-05-09T18:18:11.534Z,20.84
2023-05-09T18:20:40.664Z,21.34
2023-05-09T18:23:08.281Z,21.64
2023-05-09T18:25:36.096Z,21.84
2023-05-09T18:28:04.284Z,22.26
2023-05-09T18:30:32.315Z,21.92
2023-05-09T18:33:01.426Z,22.08
2023-05-09T18:35:29.239Z,22.33
2023-05-09T18:37:56.979Z,22.27
2023-05-09T18:40:24.626Z,22.32
2023-05-09T18:42:52.195Z,22.39
2023-05-09T18:45:19.820Z,22.58
2023-05-09T18:47:47.437Z,22.52
2023-05-09T18:50:15.446Z,22.70
2023-05-09T18:52:44.389Z,22.77
2023-05-09T18:55:14.600Z,22.89
2023-05-09T18:57:42.223Z,22.86
2023-05-09T19:00:10.438Z,22.89
2023-05-09T19:02:38.175Z,23.10
2023-05-09T19:05:07.838Z,23.14
2023-05-09T19:07:36.163Z,23.40
2023-05-09T19:10:05.250Z,23.53
2023-05-09T19:12:34.072Z,23.66
2023-05-09T19:15:02.535Z,23.80
2023-05-09T19:17:30.169Z,24.12
2023-05-09T19:19:58.195Z,24.12
2023-05-09T19:22:25.870Z,24.21
2023-05-09T19:24:53.478Z,24.43
2023-05-09T19:27:21.077Z,24.45
2023-05-09T19:29:49.919Z,24.56
2023-05-09T19:32:18.101Z,24.74
2023-05-09T19:34:45.791Z,24.88
2023-05-09T19:37:13.519Z,25.01
2023-05-09T19:39:41.452Z,25.15
2023-05-09T19:42:09.321Z,25.28
2023-05-09T19:44:36.916Z,25.50
2023-05-09T19:47:05.317Z,25.60
2023-05-09T19:49:32.978Z,25.77
2023-05-09T19:52:00.877Z,25.72
2023-05-09T19:54:28.490Z,25.88
2023-05-09T19:56:56.075Z,26.17
2023-05-09T19:59:23.701Z,26.23
2023-05-09T20:01:51.320Z,26.36
2023-05-09T20:04:21.692Z,26.46
2023-05-09T20:06:50.475Z,26.70
2023-05-09T20:09:20.838Z,26.78
2023-05-09T20:11:48.613Z,26.96
2023-05-09T20:14:16.647Z,27.07
2023-05-09T20:16:44.611Z,27.29
2023-05-09T20:19:14.109Z,27.77
2023-05-09T20:21:41.959Z,27.60
2023-05-09T20:24:11.355Z,27.81
2023-05-09T20:26:39.254Z,27.87
2023-05-09T20:29:06.931Z,27.82
2023-05-09T20:31:34.608Z,28.05
2023-05-09T20:34:02.504Z,28.12
2023-05-09T20:36:30.514Z,28.09
2023-05-09T20:38:58.221Z,28.29
2023-05-09T20:41:25.855Z,28.32
2023-05-09T20:43:53.522Z,28.39
2023-05-09T20:46:21.220Z,28.64
2023-05-09T20:48:48.981Z,28.71
2023-05-09T20:51:16.567Z,28.81
2023-05-09T20:53:44.163Z,29.09
2023-05-09T20:56:11.855Z,28.92
2023-05-09T20:58:39.547Z,29.06
2023-05-09T21:01:07.204Z,29.12
2023-05-09T21:03:34.995Z,29.10
2023-05-09T21:06:02.689Z,29.31
2023-05-09T21:08:30.281Z,29.54
2023-05-09T21:10:57.979Z,29.46
2023-05-09T21:13:25.622Z,29.68
2023-05-09T21:15:53.400Z,29.89
2023-05-09T21:18:21.096Z,30.06
2023-05-09T21:20:48.953Z,30.06
2023-05-09T21:23:18.467Z,30.22
2023-05-09T21:25:46.073Z,30.67
2023-05-09T21:28:15.432Z,30.26
2023-05-09T21:30:43.062Z,30.58
2023-05-09T21:33:10.860Z,30.55
2023-05-09T21:35:38.636Z,30.73
2023-05-09T21:38:06.225Z,30.90
2023-05-09T21:40:33.853Z,30.89
2023-05-09T21:43:01.461Z,30.96
2023-05-09T21:45:29.558Z,31.10
2023-05-09T21:47:57.538Z,31.12
2023-05-09T21:50:25.238Z,31.23
2023-05-09T21:52:52.891Z,31.17
2023-05-09T21:55:20.746Z,31.22
2023-05-09T21:57:48.334Z,31.41
2023-05-09T22:00:17.323Z,31.50
2023-05-09T22:02:45.218Z,31.63
2023-05-09T22:05:13.006Z,31.73
2023-05-09T22:07:40.640Z,32.01
2023-05-09T22:10:08.852Z,32.12
2023-05-09T22:12:36.732Z,32.19
2023-05-09T22:15:05.116Z,32.22
2023-05-09T22:17:33.220Z,32.38
2023-05-09T22:20:01.252Z,32.43
2023-05-09T22:22:29.629Z,32.53
2023-05-09T22:24:57.754Z,32.71
2023-05-09T22:27:25.586Z,32.86
2023-05-09T22:29:53.756Z,32.82
2023-05-09T22:32:21.393Z,32.89
2023-05-09T22:34:49.090Z,32.97
2023-05-09T22:37:16.792Z,33.00
2023-05-09T22:39:47.304Z,33.08
2023-05-09T22:42:15.980Z,33.20
2023-05-09T22:44:43.644Z,33.42
2023-05-09T22:47:11.371Z,33.41
2023-05-09T22:49:38.996Z,33.53
2023-05-09T22:52:06.875Z,33.73
2023-05-09T22:54:34.459Z,33.75
2023-05-09T22:57:02.056Z,33.79
2023-05-09T22:59:29.683Z,34.09
2023-05-09T23:01:58.414Z,34.34
2023-05-09T23:04:26.219Z,34.89
2023-05-09T23:06:53.863Z,34.54
2023-05-09T23:09:22.190Z,34.75
2023-05-09T23:11:49.829Z,34.81
2023-05-09T23:14:17.664Z,35.11
2023-05-09T23:16:45.316Z,35.05
2023-05-09T23:19:12.940Z,35.10
2023-05-09T23:21:40.554Z,35.41
2023-05-09T23:24:08.381Z,35.89
2023-05-09T23:26:35.968Z,35.26
2023-05-09T23:29:03.645Z,35.49
2023-05-09T23:31:31.341Z,35.22
2023-05-09T23:33:59.872Z,35.35
2023-05-09T23:36:28.143Z,35.43
2023-05-09T23:38:55.771Z,35.61
2023-05-09T23:41:23.347Z,35.54
2023-05-09T23:43:51.001Z,35.61
2023-05-09T23:46:18.873Z,35.68
2023-05-09T23:48:46.633Z,36.15
2023-05-09T23:51:14.315Z,36.09
2023-05-09T23:53:41.912Z,36.04
2023-05-09T23:56:09.505Z,36.08
2023-05-09T23:58:37.114Z,36.25
